sensor_id;sensor_type;location;lat;lon;timestamp;P1;durP1;ratioP1;P2;durP2;ratioP2
77738;SDS011;66904;59.926;30.404;2023-08-21T00:04:37;2.25;;;1.20;;
77738;SDS011;66904;59.926;30.404;2023-08-21T00:09:37;2.40;;;1.23;;
77738;SDS011;66904;59.926;30.404;2023-08-21T00:14:38;1.77;;;1.10;;
77738;SDS011;66904;59.926;30.404;2023-08-21T00:19:39;1.95;;;1.08;;
77738;SDS011;66904;59.926;30.404;2023-08-21T00:24:39;1.52;;;0.90;;
77738;SDS011;66904;59.926;30.404;2023-08-21T00:29:40;1.98;;;1.00;;
77738;SDS011;66904;59.926;30.404;2023-08-21T00:34:40;1.80;;;1.10;;
77738;SDS011;66904;59.926;30.404;2023-08-21T00:39:41;1.25;;;0.82;;
77738;SDS011;66904;59.926;30.404;2023-08-21T00:44:42;1.83;;;1.05;;
77738;SDS011;66904;59.926;30.404;2023-08-21T00:49:42;2.60;;;1.02;;
77738;SDS011;66904;59.926;30.404;2023-08-21T00:54:43;2.53;;;0.80;;
77738;SDS011;66904;59.926;30.404;2023-08-21T00:59:44;1.30;;;0.93;;
77738;SDS011;66904;59.926;30.404;2023-08-21T01:04:45;2.30;;;1.40;;
77738;SDS011;66904;59.926;30.404;2023-08-21T01:14:59;1.83;;;0.65;;
77738;SDS011;66904;59.926;30.404;2023-08-21T01:20:07;1.58;;;0.88;;
77738;SDS011;66904;59.926;30.404;2023-08-21T01:25:11;1.70;;;1.20;;
77738;SDS011;66904;59.926;30.404;2023-08-21T01:30:13;1.73;;;1.00;;
77738;SDS011;66904;59.926;30.404;2023-08-21T01:35:14;1.52;;;1.10;;
77738;SDS011;66904;59.926;30.404;2023-08-21T01:40:21;1.60;;;1.00;;
77738;SDS011;66904;59.926;30.404;2023-08-21T01:45:23;2.13;;;1.40;;
77738;SDS011;66904;59.926;30.404;2023-08-21T01:50:23;1.88;;;1.17;;
77738;SDS011;66904;59.926;30.404;2023-08-21T01:55:24;1.30;;;1.08;;
77738;SDS011;66904;59.926;30.404;2023-08-21T02:00:25;2.22;;;1.50;;
77738;SDS011;66904;59.926;30.404;2023-08-21T02:05:25;1.60;;;0.98;;
77738;SDS011;66904;59.926;30.404;2023-08-21T02:10:26;1.77;;;1.10;;
77738;SDS011;66904;59.926;30.404;2023-08-21T02:15:26;1.80;;;1.17;;
77738;SDS011;66904;59.926;30.404;2023-08-21T02:20:27;1.40;;;1.00;;
77738;SDS011;66904;59.926;30.404;2023-08-21T02:25:29;1.63;;;1.10;;
77738;SDS011;66904;59.926;30.404;2023-08-21T02:30:30;2.47;;;1.38;;
77738;SDS011;66904;59.926;30.404;2023-08-21T02:35:31;1.50;;;0.88;;
77738;SDS011;66904;59.926;30.404;2023-08-21T02:40:31;1.92;;;1.00;;
77738;SDS011;66904;59.926;30.404;2023-08-21T02:45:32;2.00;;;1.33;;
77738;SDS011;66904;59.926;30.404;2023-08-21T02:50:32;2.65;;;1.60;;
77738;SDS011;66904;59.926;30.404;2023-08-21T02:55:33;2.00;;;1.13;;
77738;SDS011;66904;59.926;30.404;2023-08-21T03:00:33;1.35;;;0.95;;
77738;SDS011;66904;59.926;30.404;2023-08-21T03:05:34;1.63;;;1.15;;
77738;SDS011;66904;59.926;30.404;2023-08-21T03:10:35;1.42;;;1.00;;
77738;SDS011;66904;59.926;30.404;2023-08-21T03:15:37;1.92;;;1.10;;
77738;SDS011;66904;59.926;30.404;2023-08-21T03:20:37;3.08;;;1.08;;
77738;SDS011;66904;59.926;30.404;2023-08-21T03:25:38;2.20;;;1.25;;
77738;SDS011;66904;59.926;30.404;2023-08-21T03:30:39;2.35;;;1.02;;
77738;SDS011;66904;59.926;30.404;2023-08-21T03:35:40;1.73;;;1.17;;
77738;SDS011;66904;59.926;30.404;2023-08-21T03:40:40;1.55;;;1.02;;
77738;SDS011;66904;59.926;30.404;2023-08-21T03:45:41;1.50;;;1.00;;
77738;SDS011;66904;59.926;30.404;2023-08-21T03:50:41;1.92;;;0.98;;
77738;SDS011;66904;59.926;30.404;2023-08-21T03:55:42;2.78;;;1.30;;
77738;SDS011;66904;59.926;30.404;2023-08-21T04:00:43;2.40;;;1.50;;
77738;SDS011;66904;59.926;30.404;2023-08-21T04:05:43;1.50;;;1.15;;
77738;SDS011;66904;59.926;30.404;2023-08-21T04:10:44;1.80;;;1.10;;
77738;SDS011;66904;59.926;30.404;2023-08-21T04:15:45;1.33;;;0.75;;
77738;SDS011;66904;59.926;30.404;2023-08-21T04:20:49;2.28;;;1.05;;
77738;SDS011;66904;59.926;30.404;2023-08-21T04:25:49;1.88;;;1.10;;
77738;SDS011;66904;59.926;30.404;2023-08-21T04:30:50;2.05;;;1.25;;
77738;SDS011;66904;59.926;30.404;2023-08-21T04:35:51;1.55;;;1.00;;
77738;SDS011;66904;59.926;30.404;2023-08-21T04:40:52;1.88;;;1.25;;
77738;SDS011;66904;59.926;30.404;2023-08-21T04:45:53;1.63;;;1.02;;
77738;SDS011;66904;59.926;30.404;2023-08-21T04:50:54;2.80;;;1.02;;
77738;SDS011;66904;59.926;30.404;2023-08-21T04:55:54;1.63;;;1.13;;
77738;SDS011;66904;59.926;30.404;2023-08-21T05:00:55;1.70;;;1.02;;
77738;SDS011;66904;59.926;30.404;2023-08-21T05:05:55;1.88;;;1.27;;
77738;SDS011;66904;59.926;30.404;2023-08-21T05:10:57;2.70;;;1.67;;
77738;SDS011;66904;59.926;30.404;2023-08-21T05:15:58;2.75;;;1.40;;
77738;SDS011;66904;59.926;30.404;2023-08-21T05:20:59;1.92;;;1.00;;
77738;SDS011;66904;59.926;30.404;2023-08-21T05:26:00;2.45;;;1.17;;
77738;SDS011;66904;59.926;30.404;2023-08-21T05:31:00;3.38;;;1.13;;
77738;SDS011;66904;59.926;30.404;2023-08-21T05:36:01;2.78;;;1.33;;
77738;SDS011;66904;59.926;30.404;2023-08-21T05:41:01;3.20;;;1.58;;
77738;SDS011;66904;59.926;30.404;2023-08-21T05:46:05;2.00;;;1.23;;
77738;SDS011;66904;59.926;30.404;2023-08-21T05:51:06;3.85;;;1.42;;
77738;SDS011;66904;59.926;30.404;2023-08-21T05:56:06;3.47;;;1.60;;
77738;SDS011;66904;59.926;30.404;2023-08-21T06:01:07;2.10;;;1.23;;
77738;SDS011;66904;59.926;30.404;2023-08-21T06:06:07;2.35;;;1.50;;
77738;SDS011;66904;59.926;30.404;2023-08-21T06:11:08;2.95;;;1.33;;
77738;SDS011;66904;59.926;30.404;2023-08-21T06:16:09;2.60;;;1.45;;
77738;SDS011;66904;59.926;30.404;2023-08-21T06:21:10;1.75;;;1.48;;
77738;SDS011;66904;59.926;30.404;2023-08-21T06:26:10;1.83;;;1.25;;
77738;SDS011;66904;59.926;30.404;2023-08-21T06:31:11;1.60;;;1.08;;
77738;SDS011;66904;59.926;30.404;2023-08-21T06:36:11;2.65;;;1.42;;
77738;SDS011;66904;59.926;30.404;2023-08-21T06:41:12;1.95;;;1.15;;
77738;SDS011;66904;59.926;30.404;2023-08-21T06:46:13;2.30;;;1.02;;
77738;SDS011;66904;59.926;30.404;2023-08-21T06:51:13;2.92;;;1.23;;
77738;SDS011;66904;59.926;30.404;2023-08-21T06:56:14;2.10;;;1.23;;
77738;SDS011;66904;59.926;30.404;2023-08-21T07:01:15;2.97;;;1.33;;
77738;SDS011;66904;59.926;30.404;2023-08-21T07:06:17;2.00;;;1.25;;
77738;SDS011;66904;59.926;30.404;2023-08-21T07:11:17;3.22;;;1.63;;
77738;SDS011;66904;59.926;30.404;2023-08-21T07:16:18;1.77;;;1.25;;
77738;SDS011;66904;59.926;30.404;2023-08-21T07:21:18;2.15;;;1.38;;
77738;SDS011;66904;59.926;30.404;2023-08-21T07:26:19;4.30;;;1.08;;
77738;SDS011;66904;59.926;30.404;2023-08-21T07:31:20;2.30;;;1.17;;
77738;SDS011;66904;59.926;30.404;2023-08-21T07:36:20;1.60;;;1.10;;
77738;SDS011;66904;59.926;30.404;2023-08-21T07:41:21;2.97;;;1.05;;
77738;SDS011;66904;59.926;30.404;2023-08-21T07:46:21;1.63;;;0.90;;
77738;SDS011;66904;59.926;30.404;2023-08-21T07:51:22;1.75;;;1.27;;
77738;SDS011;66904;59.926;30.404;2023-08-21T07:56:23;4.40;;;0.90;;
77738;SDS011;66904;59.926;30.404;2023-08-21T08:01:23;1.38;;;0.82;;
77738;SDS011;66904;59.926;30.404;2023-08-21T08:06:24;1.13;;;0.82;;
77738;SDS011;66904;59.926;30.404;2023-08-21T08:11:24;2.38;;;1.45;;
77738;SDS011;66904;59.926;30.404;2023-08-21T08:16:25;1.40;;;0.80;;
77738;SDS011;66904;59.926;30.404;2023-08-21T08:21:26;1.95;;;0.88;;
77738;SDS011;66904;59.926;30.404;2023-08-21T08:26:26;2.45;;;1.45;;
77738;SDS011;66904;59.926;30.404;2023-08-21T08:31:27;2.00;;;0.93;;
77738;SDS011;66904;59.926;30.404;2023-08-21T08:36:27;1.30;;;0.80;;
77738;SDS011;66904;59.926;30.404;2023-08-21T08:42:02;1.45;;;1.05;;
77738;SDS011;66904;59.926;30.404;2023-08-21T08:46:58;2.13;;;1.30;;
77738;SDS011;66904;59.926;30.404;2023-08-21T08:52:00;2.22;;;1.10;;
77738;SDS011;66904;59.926;30.404;2023-08-21T08:57:01;2.88;;;0.90;;
77738;SDS011;66904;59.926;30.404;2023-08-21T09:02:02;1.52;;;0.90;;
77738;SDS011;66904;59.926;30.404;2023-08-21T09:07:06;1.40;;;1.02;;
77738;SDS011;66904;59.926;30.404;2023-08-21T09:12:11;3.38;;;1.00;;
77738;SDS011;66904;59.926;30.404;2023-08-21T09:17:13;1.50;;;0.82;;
77738;SDS011;66904;59.926;30.404;2023-08-21T09:22:14;1.58;;;0.98;;
77738;SDS011;66904;59.926;30.404;2023-08-21T09:27:16;1.58;;;0.80;;
77738;SDS011;66904;59.926;30.404;2023-08-21T09:32:17;1.92;;;1.02;;
77738;SDS011;66904;59.926;30.404;2023-08-21T09:37:18;2.70;;;1.00;;
77738;SDS011;66904;59.926;30.404;2023-08-21T09:42:18;1.50;;;0.77;;
77738;SDS011;66904;59.926;30.404;2023-08-21T09:47:19;2.03;;;1.30;;
77738;SDS011;66904;59.926;30.404;2023-08-21T09:52:20;1.50;;;1.00;;
77738;SDS011;66904;59.926;30.404;2023-08-21T09:57:22;1.85;;;0.75;;
77738;SDS011;66904;59.926;30.404;2023-08-21T10:02:23;1.40;;;0.80;;
77738;SDS011;66904;59.926;30.404;2023-08-21T10:07:26;1.25;;;0.80;;
77738;SDS011;66904;59.926;30.404;2023-08-21T10:12:28;3.25;;;0.85;;
77738;SDS011;66904;59.926;30.404;2023-08-21T10:17:30;1.50;;;0.90;;
77738;SDS011;66904;59.926;30.404;2023-08-21T10:22:44;3.25;;;1.55;;
77738;SDS011;66904;59.926;30.404;2023-08-21T10:27:46;10.57;;;6.38;;
77738;SDS011;66904;59.926;30.404;2023-08-21T10:32:50;11.07;;;4.50;;
77738;SDS011;66904;59.926;30.404;2023-08-21T10:48:45;5.22;;;2.53;;
77738;SDS011;66904;59.926;30.404;2023-08-21T10:53:45;3.08;;;1.70;;
77738;SDS011;66904;59.926;30.404;2023-08-21T10:58:46;4.22;;;1.95;;
77738;SDS011;66904;59.926;30.404;2023-08-21T11:03:49;4.18;;;2.25;;
77738;SDS011;66904;59.926;30.404;2023-08-21T11:08:50;3.15;;;1.52;;
77738;SDS011;66904;59.926;30.404;2023-08-21T11:13:53;3.28;;;1.75;;
77738;SDS011;66904;59.926;30.404;2023-08-21T11:18:54;2.78;;;1.67;;
77738;SDS011;66904;59.926;30.404;2023-08-21T11:23:55;1.88;;;1.15;;
77738;SDS011;66904;59.926;30.404;2023-08-21T11:28:55;3.15;;;1.45;;
77738;SDS011;66904;59.926;30.404;2023-08-21T11:33:56;3.90;;;1.40;;
77738;SDS011;66904;59.926;30.404;2023-08-21T11:38:57;2.72;;;1.40;;
77738;SDS011;66904;59.926;30.404;2023-08-21T11:44:03;1.67;;;1.13;;
77738;SDS011;66904;59.926;30.404;2023-08-21T11:49:04;2.33;;;1.23;;
77738;SDS011;66904;59.926;30.404;2023-08-21T11:54:05;1.77;;;1.02;;
77738;SDS011;66904;59.926;30.404;2023-08-21T11:59:06;3.60;;;1.20;;
77738;SDS011;66904;59.926;30.404;2023-08-21T12:04:16;1.75;;;1.17;;
77738;SDS011;66904;59.926;30.404;2023-08-21T12:09:17;1.35;;;0.82;;
77738;SDS011;66904;59.926;30.404;2023-08-21T12:14:19;1.98;;;1.48;;
77738;SDS011;66904;59.926;30.404;2023-08-21T12:19:20;1.27;;;0.73;;
77738;SDS011;66904;59.926;30.404;2023-08-21T12:24:23;1.58;;;0.93;;
77738;SDS011;66904;59.926;30.404;2023-08-21T12:29:23;1.63;;;0.77;;
77738;SDS011;66904;59.926;30.404;2023-08-21T12:34:24;1.35;;;0.60;;
77738;SDS011;66904;59.926;30.404;2023-08-21T12:39:25;2.65;;;1.02;;
77738;SDS011;66904;59.926;30.404;2023-08-21T12:44:25;1.67;;;0.90;;
77738;SDS011;66904;59.926;30.404;2023-08-21T12:49:26;1.10;;;0.90;;
77738;SDS011;66904;59.926;30.404;2023-08-21T12:54:26;2.05;;;0.75;;
77738;SDS011;66904;59.926;30.404;2023-08-21T12:59:27;1.05;;;0.70;;
77738;SDS011;66904;59.926;30.404;2023-08-21T13:04:28;1.45;;;0.88;;
77738;SDS011;66904;59.926;30.404;2023-08-21T13:09:28;1.55;;;0.60;;
77738;SDS011;66904;59.926;30.404;2023-08-21T13:14:29;4.45;;;0.47;;
77738;SDS011;66904;59.926;30.404;2023-08-21T13:19:29;2.63;;;1.10;;
77738;SDS011;66904;59.926;30.404;2023-08-21T13:24:30;1.27;;;0.70;;
77738;SDS011;66904;59.926;30.404;2023-08-21T13:29:32;0.57;;;0.40;;
77738;SDS011;66904;59.926;30.404;2023-08-21T13:34:33;1.25;;;0.75;;
77738;SDS011;66904;59.926;30.404;2023-08-21T13:39:34;1.23;;;0.70;;
77738;SDS011;66904;59.926;30.404;2023-08-21T13:44:34;1.25;;;0.75;;
77738;SDS011;66904;59.926;30.404;2023-08-21T13:49:35;1.02;;;0.77;;
77738;SDS011;66904;59.926;30.404;2023-08-21T13:54:36;0.90;;;0.55;;
77738;SDS011;66904;59.926;30.404;2023-08-21T13:59:36;1.17;;;0.65;;
77738;SDS011;66904;59.926;30.404;2023-08-21T14:04:37;2.35;;;0.77;;
77738;SDS011;66904;59.926;30.404;2023-08-21T14:09:38;1.88;;;0.90;;
77738;SDS011;66904;59.926;30.404;2023-08-21T14:14:39;0.95;;;0.47;;
77738;SDS011;66904;59.926;30.404;2023-08-21T14:19:39;0.73;;;0.52;;
77738;SDS011;66904;59.926;30.404;2023-08-21T14:24:40;1.88;;;0.73;;
77738;SDS011;66904;59.926;30.404;2023-08-21T14:29:42;2.55;;;1.00;;
77738;SDS011;66904;59.926;30.404;2023-08-21T14:34:44;3.05;;;0.55;;
77738;SDS011;66904;59.926;30.404;2023-08-21T14:39:44;2.40;;;0.70;;
77738;SDS011;66904;59.926;30.404;2023-08-21T14:44:45;0.52;;;0.40;;
77738;SDS011;66904;59.926;30.404;2023-08-21T14:49:45;2.67;;;0.55;;
77738;SDS011;66904;59.926;30.404;2023-08-21T14:54:48;0.80;;;0.52;;
77738;SDS011;66904;59.926;30.404;2023-08-21T14:59:50;2.85;;;0.52;;
77738;SDS011;66904;59.926;30.404;2023-08-21T15:04:51;1.17;;;0.47;;
77738;SDS011;66904;59.926;30.404;2023-08-21T15:09:51;1.45;;;0.68;;
77738;SDS011;66904;59.926;30.404;2023-08-21T15:14:52;2.13;;;0.70;;
77738;SDS011;66904;59.926;30.404;2023-08-21T15:19:52;2.35;;;0.80;;
77738;SDS011;66904;59.926;30.404;2023-08-21T15:24:53;0.70;;;0.50;;
77738;SDS011;66904;59.926;30.404;2023-08-21T15:29:54;1.15;;;0.95;;
77738;SDS011;66904;59.926;30.404;2023-08-21T15:34:54;1.25;;;0.43;;
77738;SDS011;66904;59.926;30.404;2023-08-21T15:39:55;1.25;;;0.52;;
77738;SDS011;66904;59.926;30.404;2023-08-21T15:44:55;5.65;;;2.25;;
77738;SDS011;66904;59.926;30.404;2023-08-21T15:49:56;1.95;;;0.77;;
77738;SDS011;66904;59.926;30.404;2023-08-21T15:54:56;1.17;;;0.40;;
77738;SDS011;66904;59.926;30.404;2023-08-21T15:59:57;1.17;;;0.50;;
77738;SDS011;66904;59.926;30.404;2023-08-21T16:04:57;1.15;;;0.47;;
77738;SDS011;66904;59.926;30.404;2023-08-21T16:09:58;0.55;;;0.32;;
77738;SDS011;66904;59.926;30.404;2023-08-21T16:14:59;0.70;;;0.38;;
77738;SDS011;66904;59.926;30.404;2023-08-21T16:20:00;1.63;;;0.40;;
77738;SDS011;66904;59.926;30.404;2023-08-21T16:25:04;1.10;;;0.60;;
77738;SDS011;66904;59.926;30.404;2023-08-21T16:30:06;0.55;;;0.30;;
77738;SDS011;66904;59.926;30.404;2023-08-21T16:35:07;1.02;;;0.43;;
77738;SDS011;66904;59.926;30.404;2023-08-21T16:40:08;0.85;;;0.40;;
77738;SDS011;66904;59.926;30.404;2023-08-21T16:45:09;1.15;;;0.70;;
77738;SDS011;66904;59.926;30.404;2023-08-21T16:50:14;0.82;;;0.35;;
77738;SDS011;66904;59.926;30.404;2023-08-21T16:55:14;1.30;;;0.52;;
77738;SDS011;66904;59.926;30.404;2023-08-21T17:00:15;1.65;;;0.75;;
77738;SDS011;66904;59.926;30.404;2023-08-21T17:05:16;1.25;;;0.73;;
77738;SDS011;66904;59.926;30.404;2023-08-21T17:10:17;1.58;;;0.75;;
77738;SDS011;66904;59.926;30.404;2023-08-21T17:15:18;3.85;;;1.00;;
77738;SDS011;66904;59.926;30.404;2023-08-21T17:20:19;1.52;;;0.70;;
77738;SDS011;66904;59.926;30.404;2023-08-21T17:25:20;4.82;;;2.25;;
77738;SDS011;66904;59.926;30.404;2023-08-21T17:30:21;2.75;;;0.80;;
77738;SDS011;66904;59.926;30.404;2023-08-21T17:35:21;2.28;;;0.90;;
77738;SDS011;66904;59.926;30.404;2023-08-21T17:40:22;2.88;;;0.95;;
77738;SDS011;66904;59.926;30.404;2023-08-21T17:45:22;2.75;;;1.27;;
77738;SDS011;66904;59.926;30.404;2023-08-21T17:50:23;2.40;;;0.98;;
77738;SDS011;66904;59.926;30.404;2023-08-21T17:55:24;1.92;;;0.75;;
77738;SDS011;66904;59.926;30.404;2023-08-21T18:00:25;2.15;;;1.27;;
77738;SDS011;66904;59.926;30.404;2023-08-21T18:05:26;2.35;;;0.80;;
77738;SDS011;66904;59.926;30.404;2023-08-21T18:10:28;2.20;;;1.00;;
77738;SDS011;66904;59.926;30.404;2023-08-21T18:15:32;2.60;;;1.10;;
77738;SDS011;66904;59.926;30.404;2023-08-21T18:20:48;3.90;;;1.15;;
77738;SDS011;66904;59.926;30.404;2023-08-21T18:25:51;4.43;;;0.80;;
77738;SDS011;66904;59.926;30.404;2023-08-21T18:30:56;2.78;;;0.73;;
77738;SDS011;66904;59.926;30.404;2023-08-21T18:35:58;2.70;;;0.88;;
77738;SDS011;66904;59.926;30.404;2023-08-21T18:41:00;2.33;;;0.82;;
77738;SDS011;66904;59.926;30.404;2023-08-21T18:46:01;2.53;;;1.00;;
77738;SDS011;66904;59.926;30.404;2023-08-21T18:51:02;1.90;;;1.08;;
77738;SDS011;66904;59.926;30.404;2023-08-21T18:56:02;2.75;;;1.33;;
77738;SDS011;66904;59.926;30.404;2023-08-21T19:01:05;2.53;;;1.17;;
77738;SDS011;66904;59.926;30.404;2023-08-21T19:06:06;2.28;;;1.33;;
77738;SDS011;66904;59.926;30.404;2023-08-21T19:11:06;2.05;;;1.10;;
77738;SDS011;66904;59.926;30.404;2023-08-21T19:16:08;1.48;;;0.93;;
77738;SDS011;66904;59.926;30.404;2023-08-21T19:21:08;2.13;;;1.10;;
77738;SDS011;66904;59.926;30.404;2023-08-21T19:26:09;1.77;;;1.15;;
77738;SDS011;66904;59.926;30.404;2023-08-21T19:31:10;1.83;;;1.33;;
77738;SDS011;66904;59.926;30.404;2023-08-21T19:36:13;2.50;;;1.13;;
77738;SDS011;66904;59.926;30.404;2023-08-21T19:41:14;2.47;;;1.23;;
77738;SDS011;66904;59.926;30.404;2023-08-21T19:46:15;1.88;;;1.33;;
77738;SDS011;66904;59.926;30.404;2023-08-21T19:51:16;2.33;;;1.13;;
77738;SDS011;66904;59.926;30.404;2023-08-21T19:56:16;2.10;;;1.00;;
77738;SDS011;66904;59.926;30.404;2023-08-21T20:01:17;3.88;;;1.80;;
77738;SDS011;66904;59.926;30.404;2023-08-21T20:06:18;14.95;;;6.50;;
77738;SDS011;66904;59.926;30.404;2023-08-21T20:11:18;25.67;;;12.50;;
77738;SDS011;66904;59.926;30.404;2023-08-21T20:16:19;62.10;;;35.75;;
77738;SDS011;66904;59.926;30.404;2023-08-21T20:21:20;128.40;;;65.50;;
77738;SDS011;66904;59.926;30.404;2023-08-21T20:26:21;105.82;;;56.20;;
77738;SDS011;66904;59.926;30.404;2023-08-21T20:31:24;115.15;;;52.72;;
77738;SDS011;66904;59.926;30.404;2023-08-21T20:36:29;88.38;;;47.97;;
77738;SDS011;66904;59.926;30.404;2023-08-21T20:41:29;61.42;;;34.08;;
77738;SDS011;66904;59.926;30.404;2023-08-21T20:46:30;53.47;;;29.60;;
77738;SDS011;66904;59.926;30.404;2023-08-21T20:51:31;60.40;;;31.63;;
77738;SDS011;66904;59.926;30.404;2023-08-21T20:56:31;57.05;;;31.65;;
77738;SDS011;66904;59.926;30.404;2023-08-21T21:01:32;54.78;;;31.13;;
77738;SDS011;66904;59.926;30.404;2023-08-21T21:06:32;46.33;;;28.67;;
77738;SDS011;66904;59.926;30.404;2023-08-21T21:11:33;45.00;;;26.42;;
77738;SDS011;66904;59.926;30.404;2023-08-21T21:16:33;33.63;;;21.25;;
77738;SDS011;66904;59.926;30.404;2023-08-21T21:21:35;29.45;;;17.40;;
77738;SDS011;66904;59.926;30.404;2023-08-21T21:26:38;24.48;;;14.48;;
77738;SDS011;66904;59.926;30.404;2023-08-21T21:31:39;23.65;;;12.43;;
77738;SDS011;66904;59.926;30.404;2023-08-21T21:36:40;25.48;;;13.20;;
77738;SDS011;66904;59.926;30.404;2023-08-21T21:41:42;18.90;;;11.38;;
77738;SDS011;66904;59.926;30.404;2023-08-21T21:46:43;22.58;;;12.55;;
77738;SDS011;66904;59.926;30.404;2023-08-21T21:51:43;20.27;;;12.55;;
77738;SDS011;66904;59.926;30.404;2023-08-21T21:56:44;21.10;;;11.52;;
77738;SDS011;66904;59.926;30.404;2023-08-21T22:01:45;19.15;;;11.60;;
77738;SDS011;66904;59.926;30.404;2023-08-21T22:06:45;15.52;;;10.20;;
77738;SDS011;66904;59.926;30.404;2023-08-21T22:11:46;16.85;;;9.68;;
77738;SDS011;66904;59.926;30.404;2023-08-21T22:16:47;15.70;;;8.82;;
77738;SDS011;66904;59.926;30.404;2023-08-21T22:21:47;11.23;;;7.70;;
77738;SDS011;66904;59.926;30.404;2023-08-21T22:26:48;11.38;;;7.53;;
77738;SDS011;66904;59.926;30.404;2023-08-21T22:31:48;10.40;;;7.05;;
77738;SDS011;66904;59.926;30.404;2023-08-21T22:36:49;16.02;;;8.52;;
77738;SDS011;66904;59.926;30.404;2023-08-21T22:41:50;10.90;;;7.28;;
77738;SDS011;66904;59.926;30.404;2023-08-21T22:46:50;11.82;;;6.70;;
77738;SDS011;66904;59.926;30.404;2023-08-21T22:51:51;10.25;;;5.57;;
77738;SDS011;66904;59.926;30.404;2023-08-21T22:56:52;8.32;;;5.50;;
77738;SDS011;66904;59.926;30.404;2023-08-21T23:01:53;7.75;;;5.57;;
77738;SDS011;66904;59.926;30.404;2023-08-21T23:06:53;7.90;;;5.07;;
77738;SDS011;66904;59.926;30.404;2023-08-21T23:11:54;8.88;;;5.78;;
77738;SDS011;66904;59.926;30.404;2023-08-21T23:16:54;7.22;;;4.93;;
77738;SDS011;66904;59.926;30.404;2023-08-21T23:21:55;9.00;;;5.40;;
77738;SDS011;66904;59.926;30.404;2023-08-21T23:26:55;6.75;;;4.50;;
77738;SDS011;66904;59.926;30.404;2023-08-21T23:31:57;7.07;;;4.68;;
77738;SDS011;66904;59.926;30.404;2023-08-21T23:36:57;6.18;;;3.80;;
77738;SDS011;66904;59.926;30.404;2023-08-21T23:41:58;6.22;;;4.45;;
77738;SDS011;66904;59.926;30.404;2023-08-21T23:46:59;5.97;;;3.88;;
77738;SDS011;66904;59.926;30.404;2023-08-21T23:51:59;7.60;;;3.78;;
77738;SDS011;66904;59.926;30.404;2023-08-21T23:57:00;6.53;;;3.30;;
